sensor_id;sensor_type;location;lat;lon;timestamp;pressure;altitude;pressure_sealevel;temperature;humidity
60974;BME280;46846;51.528;5.076;2023-07-28T00:00:07;99981.28;;;17.97;66.03
60974;BME280;46846;51.528;5.076;2023-07-28T00:02:33;99977.97;;;17.93;65.56
60974;BME280;46846;51.528;5.076;2023-07-28T00:04:58;99978.69;;;17.95;65.94
60974;BME280;46846;51.528;5.076;2023-07-28T00:07:24;99976.38;;;17.90;65.40
60974;BME280;46846;51.528;5.076;2023-07-28T00:09:49;99977.34;;;17.89;66.27
60974;BME280;46846;51.528;5.076;2023-07-28T00:12:15;99979.78;;;17.93;66.60
60974;BME280;46846;51.528;5.076;2023-07-28T00:14:40;99981.50;;;17.94;66.20
60974;BME280;46846;51.528;5.076;2023-07-28T00:17:05;99973.44;;;17.94;65.95
60974;BME280;46846;51.528;5.076;2023-07-28T00:19:31;99978.91;;;17.92;66.24
60974;BME280;46846;51.528;5.076;2023-07-28T00:21:56;99973.53;;;17.92;65.71
60974;BME280;46846;51.528;5.076;2023-07-28T00:24:22;99977.09;;;17.93;66.34
60974;BME280;46846;51.528;5.076;2023-07-28T00:26:47;99977.81;;;17.95;66.13
60974;BME280;46846;51.528;5.076;2023-07-28T00:29:13;99975.13;;;17.95;65.75
60974;BME280;46846;51.528;5.076;2023-07-28T00:31:38;99976.22;;;17.92;65.96
60974;BME280;46846;51.528;5.076;2023-07-28T00:34:03;99983.34;;;17.93;66.19
60974;BME280;46846;51.528;5.076;2023-07-28T00:36:30;99973.69;;;17.90;66.00
60974;BME280;46846;51.528;5.076;2023-07-28T00:38:55;99974.06;;;17.86;66.02
60974;BME280;46846;51.528;5.076;2023-07-28T00:41:21;99975.75;;;17.87;65.98
60974;BME280;46846;51.528;5.076;2023-07-28T00:43:46;99966.72;;;17.88;65.92
60974;BME280;46846;51.528;5.076;2023-07-28T00:46:12;99974.78;;;17.88;66.04
60974;BME280;46846;51.528;5.076;2023-07-28T00:48:38;99969.41;;;17.88;65.30
60974;BME280;46846;51.528;5.076;2023-07-28T00:51:05;99970.72;;;17.94;66.53
60974;BME280;46846;51.528;5.076;2023-07-28T00:53:31;99967.22;;;17.93;66.22
60974;BME280;46846;51.528;5.076;2023-07-28T00:55:57;99964.75;;;17.90;66.34
60974;BME280;46846;51.528;5.076;2023-07-28T00:58:23;99969.50;;;17.86;65.67
60974;BME280;46846;51.528;5.076;2023-07-28T01:00:48;99974.06;;;17.86;65.72
60974;BME280;46846;51.528;5.076;2023-07-28T01:03:18;99967.81;;;17.85;66.28
60974;BME280;46846;51.528;5.076;2023-07-28T01:05:58;99968.06;;;17.82;65.25
60974;BME280;46846;51.528;5.076;2023-07-28T01:11:15;99972.47;;;17.83;65.98
60974;BME280;46846;51.528;5.076;2023-07-28T01:13:40;99975.16;;;17.83;65.89
60974;BME280;46846;51.528;5.076;2023-07-28T01:16:07;99975.88;;;17.85;66.35
60974;BME280;46846;51.528;5.076;2023-07-28T01:18:33;99977.69;;;17.85;66.18
60974;BME280;46846;51.528;5.076;2023-07-28T01:21:01;99977.69;;;17.85;65.85
60974;BME280;46846;51.528;5.076;2023-07-28T01:23:44;99980.53;;;17.83;65.25
60974;BME280;46846;51.528;5.076;2023-07-28T01:26:15;99977.09;;;17.81;65.24
60974;BME280;46846;51.528;5.076;2023-07-28T01:28:42;99977.69;;;17.85;65.99
60974;BME280;46846;51.528;5.076;2023-07-28T01:31:08;99980.38;;;17.85;66.78
60974;BME280;46846;51.528;5.076;2023-07-28T01:33:34;99983.22;;;17.83;66.32
60974;BME280;46846;51.528;5.076;2023-07-28T01:36:00;99971.94;;;17.78;65.44
60974;BME280;46846;51.528;5.076;2023-07-28T01:38:26;99972.81;;;17.79;66.17
60974;BME280;46846;51.528;5.076;2023-07-28T01:40:52;99977.34;;;17.78;65.42
60974;BME280;46846;51.528;5.076;2023-07-28T01:43:17;99976.34;;;17.79;66.63
60974;BME280;46846;51.528;5.076;2023-07-28T01:45:42;99980.75;;;17.80;66.29
60974;BME280;46846;51.528;5.076;2023-07-28T01:48:08;99982.72;;;17.78;66.11
60974;BME280;46846;51.528;5.076;2023-07-28T01:50:35;99986.13;;;17.80;65.77
60974;BME280;46846;51.528;5.076;2023-07-28T01:53:00;99980.03;;;17.78;65.76
60974;BME280;46846;51.528;5.076;2023-07-28T01:55:26;99988.72;;;17.82;65.94
60974;BME280;46846;51.528;5.076;2023-07-28T01:57:57;99983.44;;;17.80;65.30
60974;BME280;46846;51.528;5.076;2023-07-28T02:00:23;99987.22;;;17.77;65.49
60974;BME280;46846;51.528;5.076;2023-07-28T02:02:49;99983.69;;;17.77;65.55
60974;BME280;46846;51.528;5.076;2023-07-28T02:05:15;99976.47;;;17.77;65.36
60974;BME280;46846;51.528;5.076;2023-07-28T02:07:41;99980.13;;;17.76;65.74
60974;BME280;46846;51.528;5.076;2023-07-28T02:10:06;99976.47;;;17.77;66.64
60974;BME280;46846;51.528;5.076;2023-07-28T02:12:32;99977.44;;;17.76;66.03
60974;BME280;46846;51.528;5.076;2023-07-28T02:14:57;99976.47;;;17.77;66.39
60974;BME280;46846;51.528;5.076;2023-07-28T02:17:23;99973.78;;;17.77;65.72
60974;BME280;46846;51.528;5.076;2023-07-28T02:19:48;99982.97;;;17.75;65.58
60974;BME280;46846;51.528;5.076;2023-07-28T02:22:14;99978.69;;;17.72;65.52
60974;BME280;46846;51.528;5.076;2023-07-28T02:24:39;99983.34;;;17.70;65.56
60974;BME280;46846;51.528;5.076;2023-07-28T02:27:05;99983.19;;;17.72;66.01
60974;BME280;46846;51.528;5.076;2023-07-28T02:29:30;99988.47;;;17.73;65.59
60974;BME280;46846;51.528;5.076;2023-07-28T02:31:55;99982.22;;;17.73;65.80
60974;BME280;46846;51.528;5.076;2023-07-28T02:34:21;99983.19;;;17.72;65.48
60974;BME280;46846;51.528;5.076;2023-07-28T02:36:47;99970.47;;;17.74;66.23
60974;BME280;46846;51.528;5.076;2023-07-28T02:39:12;99976.84;;;17.73;65.53
60974;BME280;46846;51.528;5.076;2023-07-28T02:41:38;99976.72;;;17.74;65.64
60974;BME280;46846;51.528;5.076;2023-07-28T02:44:03;99976.72;;;17.74;65.65
60974;BME280;46846;51.528;5.076;2023-07-28T02:46:29;99986.88;;;17.71;65.58
60974;BME280;46846;51.528;5.076;2023-07-28T02:48:54;99980.50;;;17.72;65.91
60974;BME280;46846;51.528;5.076;2023-07-28T02:51:19;99985.03;;;17.71;65.70
60974;BME280;46846;51.528;5.076;2023-07-28T02:53:45;99984.91;;;17.73;65.72
60974;BME280;46846;51.528;5.076;2023-07-28T02:56:10;99982.34;;;17.71;65.74
60974;BME280;46846;51.528;5.076;2023-07-28T02:58:36;99980.03;;;17.67;65.26
60974;BME280;46846;51.528;5.076;2023-07-28T03:01:01;99991.41;;;17.70;65.61
60974;BME280;46846;51.528;5.076;2023-07-28T03:03:26;99991.53;;;17.69;65.60
60974;BME280;46846;51.528;5.076;2023-07-28T03:05:52;99999.47;;;17.70;66.33
60974;BME280;46846;51.528;5.076;2023-07-28T03:08:19;99993.13;;;17.71;65.73
60974;BME280;46846;51.528;5.076;2023-07-28T03:10:44;99996.78;;;17.70;65.72
60974;BME280;46846;51.528;5.076;2023-07-28T03:13:10;99991.25;;;17.72;65.41
60974;BME280;46846;51.528;5.076;2023-07-28T03:15:35;99996.66;;;17.72;65.79
60974;BME280;46846;51.528;5.076;2023-07-28T03:18:01;99998.50;;;17.71;65.75
60974;BME280;46846;51.528;5.076;2023-07-28T03:20:26;100004.00;;;17.70;66.27
60974;BME280;46846;51.528;5.076;2023-07-28T03:22:51;100000.31;;;17.71;66.11
60974;BME280;46846;51.528;5.076;2023-07-28T03:25:17;100000.56;;;17.68;65.62
60974;BME280;46846;51.528;5.076;2023-07-28T03:27:42;100002.38;;;17.67;65.35
60974;BME280;46846;51.528;5.076;2023-07-28T03:30:08;99999.69;;;17.67;65.19
60974;BME280;46846;51.528;5.076;2023-07-28T03:32:36;100001.31;;;17.70;65.96
60974;BME280;46846;51.528;5.076;2023-07-28T03:35:01;100002.16;;;17.70;65.97
60974;BME280;46846;51.528;5.076;2023-07-28T03:37:27;100003.13;;;17.69;65.87
60974;BME280;46846;51.528;5.076;2023-07-28T03:39:52;100005.81;;;17.69;65.63
60974;BME280;46846;51.528;5.076;2023-07-28T03:42:17;100009.47;;;17.68;66.09
60974;BME280;46846;51.528;5.076;2023-07-28T03:44:43;100014.75;;;17.70;65.91
60974;BME280;46846;51.528;5.076;2023-07-28T03:47:08;100017.44;;;17.70;66.17
60974;BME280;46846;51.528;5.076;2023-07-28T03:49:34;100028.44;;;17.67;65.85
60974;BME280;46846;51.528;5.076;2023-07-28T03:51:59;100027.34;;;17.69;66.20
60974;BME280;46846;51.528;5.076;2023-07-28T03:54:25;100024.16;;;17.64;65.81
60974;BME280;46846;51.528;5.076;2023-07-28T03:56:51;100027.69;;;17.65;65.15
60974;BME280;46846;51.528;5.076;2023-07-28T03:59:16;100024.78;;;17.68;66.20
60974;BME280;46846;51.528;5.076;2023-07-28T04:01:41;100025.97;;;17.63;65.43
60974;BME280;46846;51.528;5.076;2023-07-28T04:04:07;100032.84;;;17.68;65.78
60974;BME280;46846;51.528;5.076;2023-07-28T04:06:45;100024.78;;;17.68;64.78
60974;BME280;46846;51.528;5.076;2023-07-28T04:09:12;100026.59;;;17.67;65.78
60974;BME280;46846;51.528;5.076;2023-07-28T04:11:38;100022.31;;;17.65;65.27
60974;BME280;46846;51.528;5.076;2023-07-28T04:14:04;100023.28;;;17.63;65.66
60974;BME280;46846;51.528;5.076;2023-07-28T04:16:30;100015.72;;;17.69;66.46
60974;BME280;46846;51.528;5.076;2023-07-28T04:18:56;100019.63;;;17.65;65.70
60974;BME280;46846;51.528;5.076;2023-07-28T04:21:21;100013.50;;;17.62;65.91
60974;BME280;46846;51.528;5.076;2023-07-28T04:23:47;100011.09;;;17.71;67.51
60974;BME280;46846;51.528;5.076;2023-07-28T04:26:12;100009.00;;;17.63;65.73
60974;BME280;46846;51.528;5.076;2023-07-28T04:28:38;100013.75;;;17.59;65.70
60974;BME280;46846;51.528;5.076;2023-07-28T04:31:03;100009.00;;;17.63;66.57
60974;BME280;46846;51.528;5.076;2023-07-28T04:33:28;100019.00;;;17.61;65.88
60974;BME280;46846;51.528;5.076;2023-07-28T04:35:54;100019.63;;;17.65;66.13
60974;BME280;46846;51.528;5.076;2023-07-28T04:38:19;100025.88;;;17.65;66.51
60974;BME280;46846;51.528;5.076;2023-07-28T04:40:44;100019.63;;;17.65;66.17
60974;BME280;46846;51.528;5.076;2023-07-28T04:43:10;100019.63;;;17.65;65.86
60974;BME280;46846;51.528;5.076;2023-07-28T04:45:36;100026.72;;;17.66;65.67
60974;BME280;46846;51.528;5.076;2023-07-28T04:48:01;100026.97;;;17.62;65.05
60974;BME280;46846;51.528;5.076;2023-07-28T04:50:28;100022.56;;;17.61;65.85
60974;BME280;46846;51.528;5.076;2023-07-28T04:52:53;100028.69;;;17.63;65.81
60974;BME280;46846;51.528;5.076;2023-07-28T04:55:19;100028.69;;;17.63;66.37
60974;BME280;46846;51.528;5.076;2023-07-28T04:57:44;100030.63;;;17.61;65.51
60974;BME280;46846;51.528;5.076;2023-07-28T05:00:10;100035.91;;;17.63;65.66
60974;BME280;46846;51.528;5.076;2023-07-28T05:02:35;100033.31;;;17.61;65.67
60974;BME280;46846;51.528;5.076;2023-07-28T05:05:01;100036.75;;;17.63;66.35
60974;BME280;46846;51.528;5.076;2023-07-28T05:07:26;100040.41;;;17.62;65.53
60974;BME280;46846;51.528;5.076;2023-07-28T05:09:52;100044.81;;;17.63;65.70
60974;BME280;46846;51.528;5.076;2023-07-28T05:12:17;100048.38;;;17.64;66.08
60974;BME280;46846;51.528;5.076;2023-07-28T05:14:43;100048.38;;;17.64;66.06
60974;BME280;46846;51.528;5.076;2023-07-28T05:17:08;100053.88;;;17.62;65.86
60974;BME280;46846;51.528;5.076;2023-07-28T05:19:34;100055.69;;;17.62;65.87
60974;BME280;46846;51.528;5.076;2023-07-28T05:22:00;100055.69;;;17.62;65.75
60974;BME280;46846;51.528;5.076;2023-07-28T05:24:25;100053.13;;;17.60;65.65
60974;BME280;46846;51.528;5.076;2023-07-28T05:26:50;100056.66;;;17.61;65.64
60974;BME280;46846;51.528;5.076;2023-07-28T05:29:16;100049.47;;;17.61;65.68
60974;BME280;46846;51.528;5.076;2023-07-28T05:31:41;100059.25;;;17.62;65.22
60974;BME280;46846;51.528;5.076;2023-07-28T05:34:07;100057.75;;;17.58;65.68
60974;BME280;46846;51.528;5.076;2023-07-28T05:36:33;100055.81;;;17.60;65.71
60974;BME280;46846;51.528;5.076;2023-07-28T05:38:58;100067.56;;;17.59;65.37
60974;BME280;46846;51.528;5.076;2023-07-28T05:41:23;100060.34;;;17.60;65.45
60974;BME280;46846;51.528;5.076;2023-07-28T05:43:49;100070.00;;;17.62;65.50
60974;BME280;46846;51.528;5.076;2023-07-28T05:46:15;100067.31;;;17.62;66.51
60974;BME280;46846;51.528;5.076;2023-07-28T05:48:41;100073.69;;;17.61;65.62
60974;BME280;46846;51.528;5.076;2023-07-28T05:51:06;100071.97;;;17.60;65.64
60974;BME280;46846;51.528;5.076;2023-07-28T05:53:32;100069.03;;;17.63;65.91
60974;BME280;46846;51.528;5.076;2023-07-28T05:55:57;100080.53;;;17.66;66.04
60974;BME280;46846;51.528;5.076;2023-07-28T05:58:23;100079.06;;;17.61;65.42
60974;BME280;46846;51.528;5.076;2023-07-28T06:00:49;100071.59;;;17.65;65.83
60974;BME280;46846;51.528;5.076;2023-07-28T06:03:14;100079.78;;;17.63;65.55
60974;BME280;46846;51.528;5.076;2023-07-28T06:05:40;100081.50;;;17.65;65.37
60974;BME280;46846;51.528;5.076;2023-07-28T06:08:06;100083.47;;;17.74;66.76
60974;BME280;46846;51.528;5.076;2023-07-28T06:10:31;100081.13;;;17.69;65.79
60974;BME280;46846;51.528;5.076;2023-07-28T06:12:57;100077.81;;;17.66;65.57
60974;BME280;46846;51.528;5.076;2023-07-28T06:15:23;100070.00;;;17.62;65.61
60974;BME280;46846;51.528;5.076;2023-07-28T06:17:48;100081.22;;;17.56;64.99
60974;BME280;46846;51.528;5.076;2023-07-28T06:20:14;100081.22;;;17.56;65.51
60974;BME280;46846;51.528;5.076;2023-07-28T06:22:39;100077.56;;;17.57;65.25
60974;BME280;46846;51.528;5.076;2023-07-28T06:25:05;100083.56;;;17.61;65.56
60974;BME280;46846;51.528;5.076;2023-07-28T06:27:30;100091.78;;;17.59;65.57
60974;BME280;46846;51.528;5.076;2023-07-28T06:29:56;100094.22;;;17.62;65.87
60974;BME280;46846;51.528;5.076;2023-07-28T06:32:21;100091.63;;;17.61;66.28
60974;BME280;46846;51.528;5.076;2023-07-28T06:34:49;100099.25;;;17.67;66.71
60974;BME280;46846;51.528;5.076;2023-07-28T06:37:14;100099.09;;;17.57;64.56
60974;BME280;46846;51.528;5.076;2023-07-28T06:39:40;100101.66;;;17.59;65.50
60974;BME280;46846;51.528;5.076;2023-07-28T06:42:06;100104.34;;;17.59;65.74
60974;BME280;46846;51.528;5.076;2023-07-28T06:44:32;100107.66;;;17.62;66.79
60974;BME280;46846;51.528;5.076;2023-07-28T06:46:57;100104.00;;;17.63;65.77
60974;BME280;46846;51.528;5.076;2023-07-28T06:49:23;100109.72;;;17.59;65.93
60974;BME280;46846;51.528;5.076;2023-07-28T06:51:48;100110.34;;;17.62;66.84
60974;BME280;46846;51.528;5.076;2023-07-28T06:54:14;100108.19;;;17.68;66.72
60974;BME280;46846;51.528;5.076;2023-07-28T06:56:40;100105.34;;;17.69;66.15
60974;BME280;46846;51.528;5.076;2023-07-28T06:59:07;100104.72;;;17.66;65.59
60974;BME280;46846;51.528;5.076;2023-07-28T07:01:33;100099.50;;;17.64;65.85
60974;BME280;46846;51.528;5.076;2023-07-28T07:03:59;100105.22;;;17.59;65.21
60974;BME280;46846;51.528;5.076;2023-07-28T07:06:24;100114.88;;;17.62;64.83
60974;BME280;46846;51.528;5.076;2023-07-28T07:08:50;100120.59;;;17.57;66.60
60974;BME280;46846;51.528;5.076;2023-07-28T07:11:15;100119.41;;;17.61;66.67
60974;BME280;46846;51.528;5.076;2023-07-28T07:13:40;100124.28;;;17.56;65.45
60974;BME280;46846;51.528;5.076;2023-07-28T07:16:13;100127.47;;;17.61;65.80
60974;BME280;46846;51.528;5.076;2023-07-28T07:18:39;100129.09;;;17.64;66.04
60974;BME280;46846;51.528;5.076;2023-07-28T07:21:04;100126.25;;;17.66;66.23
60974;BME280;46846;51.528;5.076;2023-07-28T07:23:31;100124.78;;;17.61;65.80
60974;BME280;46846;51.528;5.076;2023-07-28T07:25:56;100128.22;;;17.63;66.59
60974;BME280;46846;51.528;5.076;2023-07-28T07:28:22;100140.81;;;17.63;66.26
60974;BME280;46846;51.528;5.076;2023-07-28T07:30:47;100136.28;;;17.63;65.68
60974;BME280;46846;51.528;5.076;2023-07-28T07:33:13;100141.44;;;17.67;66.02
60974;BME280;46846;51.528;5.076;2023-07-28T07:35:39;100146.66;;;17.57;65.20
60974;BME280;46846;51.528;5.076;2023-07-28T07:38:05;100145.56;;;17.59;65.21
60974;BME280;46846;51.528;5.076;2023-07-28T07:40:35;100147.03;;;17.63;66.09
60974;BME280;46846;51.528;5.076;2023-07-28T07:43:00;100153.06;;;17.67;66.21
60974;BME280;46846;51.528;5.076;2023-07-28T07:45:28;100150.47;;;17.66;66.63
60974;BME280;46846;51.528;5.076;2023-07-28T07:47:54;100158.53;;;17.66;66.27
60974;BME280;46846;51.528;5.076;2023-07-28T07:50:20;100157.34;;;17.70;68.34
60974;BME280;46846;51.528;5.076;2023-07-28T07:52:47;100156.25;;;17.72;65.57
60974;BME280;46846;51.528;5.076;2023-07-28T07:55:12;100160.66;;;17.73;66.93
60974;BME280;46846;51.528;5.076;2023-07-28T07:57:38;100158.53;;;17.66;66.86
60974;BME280;46846;51.528;5.076;2023-07-28T08:00:03;100152.22;;;17.67;66.24
60974;BME280;46846;51.528;5.076;2023-07-28T08:02:30;100159.16;;;17.69;65.69
60974;BME280;46846;51.528;5.076;2023-07-28T08:04:55;100163.59;;;17.70;65.54
60974;BME280;46846;51.528;5.076;2023-07-28T08:07:21;100153.06;;;17.67;66.43
60974;BME280;46846;51.528;5.076;2023-07-28T08:09:47;100149.38;;;17.68;66.78
60974;BME280;46846;51.528;5.076;2023-07-28T08:12:14;100156.47;;;17.69;66.55
60974;BME280;46846;51.528;5.076;2023-07-28T08:14:39;100151.50;;;17.76;65.83
60974;BME280;46846;51.528;5.076;2023-07-28T08:17:05;100158.94;;;17.72;66.63
60974;BME280;46846;51.528;5.076;2023-07-28T08:19:30;100160.41;;;17.76;68.05
60974;BME280;46846;51.528;5.076;2023-07-28T08:21:56;100165.59;;;17.91;69.17
60974;BME280;46846;51.528;5.076;2023-07-28T08:24:21;100162.84;;;18.04;69.55
60974;BME280;46846;51.528;5.076;2023-07-28T08:26:46;100173.94;;;18.12;70.27
60974;BME280;46846;51.528;5.076;2023-07-28T08:29:12;100166.47;;;18.16;70.71
60974;BME280;46846;51.528;5.076;2023-07-28T08:31:37;100171.44;;;18.09;70.50
60974;BME280;46846;51.528;5.076;2023-07-28T08:34:02;100175.00;;;18.10;70.52
60974;BME280;46846;51.528;5.076;2023-07-28T08:36:28;100168.34;;;18.02;69.79
60974;BME280;46846;51.528;5.076;2023-07-28T08:38:54;100177.41;;;18.01;68.48
60974;BME280;46846;51.528;5.076;2023-07-28T08:41:19;100175.41;;;17.92;68.52
60974;BME280;46846;51.528;5.076;2023-07-28T08:43:45;100172.84;;;17.90;70.11
60974;BME280;46846;51.528;5.076;2023-07-28T08:46:11;100179.22;;;17.89;69.11
60974;BME280;46846;51.528;5.076;2023-07-28T08:48:36;100181.13;;;17.87;68.22
60974;BME280;46846;51.528;5.076;2023-07-28T08:51:02;100182.38;;;17.95;69.20
60974;BME280;46846;51.528;5.076;2023-07-28T08:53:29;100192.06;;;17.97;69.03
60974;BME280;46846;51.528;5.076;2023-07-28T08:55:55;100182.75;;;17.90;67.63
60974;BME280;46846;51.528;5.076;2023-07-28T08:58:22;100183.16;;;17.97;68.84
60974;BME280;46846;51.528;5.076;2023-07-28T09:00:50;100187.31;;;18.01;69.03
60974;BME280;46846;51.528;5.076;2023-07-28T09:03:16;100184.28;;;18.06;68.61
60974;BME280;46846;51.528;5.076;2023-07-28T09:05:43;100187.97;;;18.04;67.13
60974;BME280;46846;51.528;5.076;2023-07-28T09:08:08;100187.84;;;18.06;67.62
60974;BME280;46846;51.528;5.076;2023-07-28T09:10:48;100183.56;;;18.15;67.04
60974;BME280;46846;51.528;5.076;2023-07-28T09:13:15;100188.75;;;18.18;68.52
60974;BME280;46846;51.528;5.076;2023-07-28T09:15:41;100180.66;;;18.29;70.59
60974;BME280;46846;51.528;5.076;2023-07-28T09:18:19;100186.06;;;18.29;69.28
60974;BME280;46846;51.528;5.076;2023-07-28T09:20:45;100187.50;;;18.22;68.21
60974;BME280;46846;51.528;5.076;2023-07-28T09:23:13;100182.66;;;18.39;70.48
60974;BME280;46846;51.528;5.076;2023-07-28T09:25:39;100183.03;;;18.45;69.81
60974;BME280;46846;51.528;5.076;2023-07-28T09:28:04;100186.19;;;18.39;69.63
60974;BME280;46846;51.528;5.076;2023-07-28T09:30:45;100189.16;;;18.36;68.38
60974;BME280;46846;51.528;5.076;2023-07-28T09:33:11;100180.34;;;18.45;70.79
60974;BME280;46846;51.528;5.076;2023-07-28T09:35:47;100182.91;;;18.47;67.35
60974;BME280;46846;51.528;5.076;2023-07-28T09:38:14;100187.06;;;18.51;70.33
60974;BME280;46846;51.528;5.076;2023-07-28T09:40:40;100192.59;;;18.50;69.72
60974;BME280;46846;51.528;5.076;2023-07-28T09:43:07;100191.97;;;18.57;70.62
60974;BME280;46846;51.528;5.076;2023-07-28T09:45:33;100195.66;;;18.56;68.64
60974;BME280;46846;51.528;5.076;2023-07-28T09:48:00;100193.94;;;18.55;69.59
60974;BME280;46846;51.528;5.076;2023-07-28T09:50:31;100189.66;;;18.76;71.78
60974;BME280;46846;51.528;5.076;2023-07-28T09:53:02;100193.84;;;18.80;71.55
60974;BME280;46846;51.528;5.076;2023-07-28T09:55:28;100199.72;;;18.74;70.54
60974;BME280;46846;51.528;5.076;2023-07-28T09:57:56;100202.63;;;18.70;68.91
60974;BME280;46846;51.528;5.076;2023-07-28T10:00:23;100196.03;;;18.75;69.83
60974;BME280;46846;51.528;5.076;2023-07-28T10:02:49;100202.78;;;18.80;69.92
60974;BME280;46846;51.528;5.076;2023-07-28T10:05:16;100204.63;;;18.80;69.30
60974;BME280;46846;51.528;5.076;2023-07-28T10:07:43;100205.13;;;18.74;68.75
60974;BME280;46846;51.528;5.076;2023-07-28T10:10:13;100201.06;;;18.79;68.72
60974;BME280;46846;51.528;5.076;2023-07-28T10:12:46;100205.47;;;18.80;67.71
60974;BME280;46846;51.528;5.076;2023-07-28T10:15:13;100199.97;;;18.82;68.15
60974;BME280;46846;51.528;5.076;2023-07-28T10:17:44;100200.47;;;18.87;67.95
60974;BME280;46846;51.528;5.076;2023-07-28T10:23:25;100199.84;;;18.95;66.92
60974;BME280;46846;51.528;5.076;2023-07-28T10:26:00;100199.47;;;18.99;67.31
60974;BME280;46846;51.528;5.076;2023-07-28T10:28:36;100210.13;;;18.90;68.02
60974;BME280;46846;51.528;5.076;2023-07-28T10:31:05;100211.50;;;18.95;67.56
60974;BME280;46846;51.528;5.076;2023-07-28T10:33:34;100211.88;;;18.91;67.01
60974;BME280;46846;51.528;5.076;2023-07-28T10:36:13;100211.13;;;19.00;67.16
60974;BME280;46846;51.528;5.076;2023-07-28T10:38:40;100201.97;;;19.03;67.55
60974;BME280;46846;51.528;5.076;2023-07-28T10:41:08;100207.31;;;19.14;68.55
60974;BME280;46846;51.528;5.076;2023-07-28T10:43:34;100196.66;;;19.24;68.00
60974;BME280;46846;51.528;5.076;2023-07-28T10:45:59;100207.78;;;19.31;68.75
60974;BME280;46846;51.528;5.076;2023-07-28T10:48:25;100204.38;;;19.29;67.90
60974;BME280;46846;51.528;5.076;2023-07-28T10:50:51;100198.97;;;19.29;68.02
60974;BME280;46846;51.528;5.076;2023-07-28T10:53:17;100197.88;;;19.31;67.82
60974;BME280;46846;51.528;5.076;2023-07-28T10:55:43;100197.75;;;19.33;67.62
60974;BME280;46846;51.528;5.076;2023-07-28T10:58:09;100204.84;;;19.34;67.34
60974;BME280;46846;51.528;5.076;2023-07-28T11:00:34;100197.97;;;19.41;68.00
60974;BME280;46846;51.528;5.076;2023-07-28T11:03:01;100197.09;;;19.40;67.34
60974;BME280;46846;51.528;5.076;2023-07-28T11:05:28;100194.63;;;19.49;68.35
60974;BME280;46846;51.528;5.076;2023-07-28T11:07:55;100195.75;;;19.46;67.44
60974;BME280;46846;51.528;5.076;2023-07-28T11:10:22;100199.19;;;19.48;67.38
60974;BME280;46846;51.528;5.076;2023-07-28T11:12:49;100195.50;;;19.49;65.88
60974;BME280;46846;51.528;5.076;2023-07-28T11:15:16;100194.00;;;19.57;66.29
60974;BME280;46846;51.528;5.076;2023-07-28T11:17:49;100200.25;;;19.57;66.16
60974;BME280;46846;51.528;5.076;2023-07-28T11:23:00;100196.41;;;19.71;66.51
60974;BME280;46846;51.528;5.076;2023-07-28T11:25:28;100184.72;;;19.82;66.07
60974;BME280;46846;51.528;5.076;2023-07-28T11:27:54;100194.13;;;19.88;67.33
60974;BME280;46846;51.528;5.076;2023-07-28T11:30:23;100188.72;;;19.88;65.71
60974;BME280;46846;51.528;5.076;2023-07-28T11:32:50;100193.53;;;19.96;66.66
60974;BME280;46846;51.528;5.076;2023-07-28T11:35:17;100191.16;;;20.02;66.44
60974;BME280;46846;51.528;5.076;2023-07-28T11:37:45;100196.03;;;20.08;66.38
60974;BME280;46846;51.528;5.076;2023-07-28T11:40:11;100193.84;;;20.02;65.50
60974;BME280;46846;51.528;5.076;2023-07-28T11:42:39;100195.31;;;20.06;65.67
60974;BME280;46846;51.528;5.076;2023-07-28T11:45:07;100200.91;;;20.15;65.85
60974;BME280;46846;51.528;5.076;2023-07-28T11:47:35;100201.81;;;20.25;66.44
60974;BME280;46846;51.528;5.076;2023-07-28T11:50:00;100200.03;;;20.35;66.62
60974;BME280;46846;51.528;5.076;2023-07-28T11:52:33;100196.09;;;20.40;66.26
60974;BME280;46846;51.528;5.076;2023-07-28T11:54:59;100201.38;;;20.41;66.08
60974;BME280;46846;51.528;5.076;2023-07-28T11:57:29;100201.78;;;20.37;65.60
60974;BME280;46846;51.528;5.076;2023-07-28T12:00:00;100202.56;;;20.48;64.90
60974;BME280;46846;51.528;5.076;2023-07-28T12:02:27;100204.78;;;20.43;65.31
60974;BME280;46846;51.528;5.076;2023-07-28T12:04:53;100207.78;;;20.40;65.21
60974;BME280;46846;51.528;5.076;2023-07-28T12:07:27;100207.38;;;20.45;65.23
60974;BME280;46846;51.528;5.076;2023-07-28T12:09:53;100208.56;;;20.52;65.54
60974;BME280;46846;51.528;5.076;2023-07-28T12:12:21;100207.09;;;20.48;65.04
60974;BME280;46846;51.528;5.076;2023-07-28T12:14:48;100217.66;;;20.51;65.32
60974;BME280;46846;51.528;5.076;2023-07-28T12:17:18;100219.78;;;20.57;64.95
60974;BME280;46846;51.528;5.076;2023-07-28T12:20:02;100215.31;;;20.68;65.04
60974;BME280;46846;51.528;5.076;2023-07-28T12:22:32;100218.03;;;20.68;65.04
60974;BME280;46846;51.528;5.076;2023-07-28T12:24:58;100215.31;;;20.68;64.75
60974;BME280;46846;51.528;5.076;2023-07-28T12:27:23;100216.63;;;20.73;64.87
60974;BME280;46846;51.528;5.076;2023-07-28T12:29:51;100219.50;;;20.82;64.95
60974;BME280;46846;51.528;5.076;2023-07-28T12:32:18;100223.19;;;20.81;64.79
60974;BME280;46846;51.528;5.076;2023-07-28T12:34:43;100222.50;;;20.79;64.52
60974;BME280;46846;51.528;5.076;2023-07-28T12:37:08;100225.03;;;20.80;64.54
60974;BME280;46846;51.528;5.076;2023-07-28T12:39:38;100231.66;;;20.87;64.60
60974;BME280;46846;51.528;5.076;2023-07-28T12:42:07;100233.03;;;20.82;64.54
60974;BME280;46846;51.528;5.076;2023-07-28T12:44:34;100233.09;;;20.92;64.68
60974;BME280;46846;51.528;5.076;2023-07-28T12:47:00;100228.69;;;20.90;64.52
60974;BME280;46846;51.528;5.076;2023-07-28T12:49:26;100231.13;;;20.94;64.44
60974;BME280;46846;51.528;5.076;2023-07-28T12:51:51;100232.09;;;20.93;64.25
60974;BME280;46846;51.528;5.076;2023-07-28T12:54:16;100236.69;;;21.02;64.37
60974;BME280;46846;51.528;5.076;2023-07-28T12:56:42;100235.16;;;21.09;65.40